Aérodrome :
LOGIN :

S'inscrire | Disclaimer

   EN    FR    IT 

 










Légende :    VFR   VFR Marginal   IFR   IFR Intensif   IFR Très Intensif
Visi : 
Plafond : 
>= 8 km
>= 3000ft
5 à 8 km
1000 à 3000 ft
1500m à 5 km
500 à 1000 ft
800 à 1500m
200 à 500 ft
< 800m
< 200 ft
Symboles :   Orages  Brouillard  Fortes neiges  Fortes précipitations  Vent > 20 kt
SIGMETs :   Divers  Orages  Givrage  Turbulence  Onde Orograph.  Cendres Volcan.






- Altitude de l'aérodrome : 1910 ft
- Code IATA : RDZ


LFCR - Rodez

DERNIER METAR :
  • 231030Z AUTO VRB02KT CAVOK 12/04 Q1033 NOSIG

METARs EXPIRÉS :
  • 231000Z AUTO VRB01KT CAVOK 11/03 Q1033 NOSIG
  • 230930Z AUTO VRB03KT CAVOK 09/02 Q1033 NOSIG
  • 230900Z AUTO VRB02KT CAVOK 07/02 Q1033 NOSIG
  • 230830Z AUTO 08002KT CAVOK 05/01 Q1033 NOSIG
  • 230800Z AUTO VRB02KT CAVOK 03/00 Q1033 NOSIG

TAF TAF LFCR
Valide du 23 à 06h jusqu'au 24 à 06h UTC


230500Z 2306/2406 VRB02KT CAVOK
PROB40
TEMPO 2314/2318 32005KT
TEMPO 2321/2406 4500 BR
PROB40
TEMPO 2323/2406 0700 FG VV///



MET'MAP, la Météo Aéronautique d'un coup d'oeil ! - Copyright ORBIFLY Décembre 2007 - Disclaimer

ORBIFLY MET'MAP TEAM :

Programmation & Développement : Alexandra Zaïnal
Sur une idée originale de : Baudouin d'Aumeries
Assistance à la programmation : Marc-Olivier Méhu
Soutien technique & logistique : Manuel Goepfert

Contact : metmap@orbifly.com




SOURCES & CREDITS :

   NOAA